Time;durP1;ratioP1;P1;durP2;ratioP2;P2;SDS_P1;SDS_P2;PMS_P1;PMS_P2;Temp;Humidity;BMP_temperature;BMP_pressure;BME280_temperature;BME280_humidity;BME280_pressure;Samples;Min_cycle;Max_cycle;Signal;HPM_P1;HPM_P2
2023/12/16 00:01:10;;;;;;;;;;;6.50;99.90;;;;;;5068045;28;19996;-67
2023/12/16 00:03:38;;;;;;;;;;;6.50;99.90;;;;;;5065302;28;19982;-67
2023/12/16 00:06:05;;;;;;;;;;;6.50;99.90;;;;;;5067554;28;20022;-68
2023/12/16 00:08:31;;;;;;;;;;;6.40;99.90;;;;;;5065167;28;20007;-68
2023/12/16 00:10:58;;;;;;;;;;;6.40;99.90;;;;;;5067288;28;20453;-68
2023/12/16 00:13:24;;;;;;;;;;;6.40;99.90;;;;;;5065999;28;19983;-67
2023/12/16 00:15:51;;;;;;;;;;;6.50;99.90;;;;;;5062782;28;20259;-67
2023/12/16 00:18:18;;;;;;;;;;;6.40;99.90;;;;;;5065538;28;20003;-66
2023/12/16 00:20:46;;;;;;;;;;;6.40;99.90;;;;;;5065512;28;20337;-67
2023/12/16 00:23:12;;;;;;;;;;;6.40;99.90;;;;;;5067669;28;20066;-67
2023/12/16 00:25:39;;;;;;;;;;;6.40;99.90;;;;;;5065579;28;20487;-67
2023/12/16 00:28:05;;;;;;;;;;;6.40;99.90;;;;;;5067210;28;19992;-67
2023/12/16 00:30:32;;;;;;;;;;;6.40;99.90;;;;;;5063688;28;19999;-68
2023/12/16 00:32:58;;;;;;;;;;;6.40;99.90;;;;;;5065693;28;19975;-67
2023/12/16 00:35:26;;;;;;;;;;;6.40;99.90;;;;;;5066343;28;20086;-68
2023/12/16 00:37:53;;;;;;;;;;;6.40;99.90;;;;;;5064559;28;20053;-67
2023/12/16 00:40:20;;;;;;;;;;;6.40;99.90;;;;;;5066715;28;19979;-68
2023/12/16 00:42:47;;;;;;;;;;;6.40;99.90;;;;;;5065878;28;19986;-66
2023/12/16 00:45:13;;;;;;;;;;;6.40;99.90;;;;;;5064016;28;19991;-68
2023/12/16 00:47:40;;;;;;;;;;;6.40;99.90;;;;;;5064490;28;20037;-67
2023/12/16 00:50:08;;;;;;;;;;;6.40;99.90;;;;;;5068290;28;19999;-67
2023/12/16 00:52:34;;;;;;;;;;;6.40;99.90;;;;;;5064017;28;19986;-68
2023/12/16 00:55:03;;;;;;;;;;;6.40;99.90;;;;;;5066683;28;20029;-67
2023/12/16 00:57:29;;;;;;;;;;;6.40;99.90;;;;;;5064265;28;20421;-68
2023/12/16 00:59:56;;;;;;;;;;;6.40;99.90;;;;;;5066422;28;20445;-67
2023/12/16 01:02:22;;;;;;;;;;;6.40;99.90;;;;;;5066268;28;20045;-69
2023/12/16 01:04:49;;;;;;;;;;;6.40;99.90;;;;;;5066775;28;19988;-68
2023/12/16 01:07:15;;;;;;;;;;;6.40;99.90;;;;;;5063117;28;20538;-67
2023/12/16 01:09:42;;;;;;;;;;;6.40;99.90;;;;;;5064412;28;19987;-67
2023/12/16 01:12:10;;;;;;;;;;;6.40;99.90;;;;;;5063841;28;20104;-68
2023/12/16 01:14:37;;;;;;;;;;;6.40;99.90;;;;;;5063111;28;19984;-67
2023/12/16 01:17:03;;;;;;;;;;;6.40;99.90;;;;;;5063021;28;20453;-67
2023/12/16 01:19:30;;;;;;;;;;;6.40;99.90;;;;;;5065226;28;19987;-67
2023/12/16 01:21:56;;;;;;;;;;;6.40;99.90;;;;;;5064599;28;19987;-67
2023/12/16 01:24:23;;;;;;;;;;;6.40;99.90;;;;;;5064332;28;20025;-68
2023/12/16 01:26:49;;;;;;;;;;;6.40;99.90;;;;;;5066355;28;20478;-67
2023/12/16 01:29:18;;;;;;;;;;;6.40;99.90;;;;;;5067776;28;19995;-69
2023/12/16 01:31:44;;;;;;;;;;;6.40;99.90;;;;;;5067875;28;20093;-67
2023/12/16 01:34:11;;;;;;;;;;;6.40;99.90;;;;;;5070840;28;19979;-67
2023/12/16 01:36:37;;;;;;;;;;;6.40;99.90;;;;;;5069377;28;20262;-68
2023/12/16 01:39:04;;;;;;;;;;;6.40;99.90;;;;;;5066683;28;20544;-68
2023/12/16 01:41:30;;;;;;;;;;;6.40;99.90;;;;;;5069566;28;20373;-67
2023/12/16 01:43:57;;;;;;;;;;;6.40;99.90;;;;;;5066024;28;19991;-68
2023/12/16 01:46:25;;;;;;;;;;;6.40;99.90;;;;;;5067095;28;20117;-67
2023/12/16 01:48:52;;;;;;;;;;;6.30;99.90;;;;;;5067061;28;19995;-68
2023/12/16 01:51:19;;;;;;;;;;;6.40;99.90;;;;;;5068586;28;19995;-67
2023/12/16 01:53:46;;;;;;;;;;;6.40;99.90;;;;;;5067396;28;19983;-67
2023/12/16 01:56:12;;;;;;;;;;;6.40;99.90;;;;;;5072604;28;19983;-67
2023/12/16 01:58:39;;;;;;;;;;;6.40;99.90;;;;;;5068545;28;20049;-67
2023/12/16 02:01:06;;;;;;;;;;;6.40;99.90;;;;;;5068512;28;19995;-67
2023/12/16 02:03:36;;;;;;;;;;;6.30;99.90;;;;;;5068180;28;20066;-68
2023/12/16 02:06:03;;;;;;;;;;;6.40;99.90;;;;;;5070236;28;19979;-69
2023/12/16 02:08:30;;;;;;;;;;;6.40;99.90;;;;;;5067331;28;20369;-67
2023/12/16 02:10:56;;;;;;;;;;;6.40;99.90;;;;;;5068212;28;19995;-67
2023/12/16 02:13:24;;;;;;;;;;;6.30;99.90;;;;;;5068952;28;20061;-67
2023/12/16 02:15:50;;;;;;;;;;;6.40;99.90;;;;;;5066622;28;20117;-67
2023/12/16 02:18:17;;;;;;;;;;;6.40;99.90;;;;;;5067799;28;20568;-68
2023/12/16 02:20:46;;;;;;;;;;;6.40;99.90;;;;;;5069969;28;20511;-67
2023/12/16 02:23:16;;;;;;;;;;;6.30;99.90;;;;;;5067532;28;20003;-67
2023/12/16 02:25:42;;;;;;;;;;;6.40;99.90;;;;;;5069658;28;20070;-67
2023/12/16 02:28:09;;;;;;;;;;;6.40;99.90;;;;;;5065967;28;19998;-67
2023/12/16 02:30:35;;;;;;;;;;;6.40;99.90;;;;;;5066799;28;20007;-67
2023/12/16 02:33:02;;;;;;;;;;;6.30;99.90;;;;;;5068323;28;19991;-67
2023/12/16 02:35:29;;;;;;;;;;;6.40;99.90;;;;;;5067630;28;19979;-67
2023/12/16 02:37:55;;;;;;;;;;;6.30;99.90;;;;;;5065944;28;20003;-67
2023/12/16 02:40:23;;;;;;;;;;;6.30;99.90;;;;;;5068981;28;20419;-67
2023/12/16 02:42:50;;;;;;;;;;;6.40;99.90;;;;;;5062124;28;19987;-67
2023/12/16 02:45:16;;;;;;;;;;;6.40;99.90;;;;;;5066282;28;19979;-66
2023/12/16 02:47:43;;;;;;;;;;;6.30;99.90;;;;;;5066848;28;20262;-68
2023/12/16 02:50:09;;;;;;;;;;;6.40;99.90;;;;;;5068980;28;20082;-68
2023/12/16 02:52:36;;;;;;;;;;;6.40;99.90;;;;;;5066234;28;19995;-67
2023/12/16 02:55:03;;;;;;;;;;;6.30;99.90;;;;;;5066927;28;19983;-67
2023/12/16 02:57:30;;;;;;;;;;;6.40;99.90;;;;;;5068188;28;19999;-68
2023/12/16 02:59:57;;;;;;;;;;;6.40;99.90;;;;;;5068354;28;19983;-66
2023/12/16 03:02:23;;;;;;;;;;;6.40;99.90;;;;;;5062344;28;20643;-67
2023/12/16 03:04:51;;;;;;;;;;;6.30;99.90;;;;;;5065582;28;19991;-66
2023/12/16 03:07:18;;;;;;;;;;;6.30;99.90;;;;;;5065628;28;20464;-67
2023/12/16 03:09:44;;;;;;;;;;;6.30;99.90;;;;;;5065755;28;19986;-67
2023/12/16 03:12:11;;;;;;;;;;;6.30;99.90;;;;;;5067057;28;20068;-67
2023/12/16 03:14:41;;;;;;;;;;;6.30;99.90;;;;;;5066327;28;20510;-66
2023/12/16 03:17:07;;;;;;;;;;;6.30;99.90;;;;;;5065469;28;20475;-67
2023/12/16 03:19:34;;;;;;;;;;;6.30;99.90;;;;;;5066085;28;19984;-67
2023/12/16 03:22:00;;;;;;;;;;;6.40;99.90;;;;;;5064810;28;19982;-67
2023/12/16 03:24:27;;;;;;;;;;;6.30;99.90;;;;;;5063835;28;20007;-68
2023/12/16 03:26:53;;;;;;;;;;;6.30;99.90;;;;;;5065252;28;20729;-67
2023/12/16 03:29:20;;;;;;;;;;;6.30;99.90;;;;;;5064542;28;19999;-67
2023/12/16 03:31:49;;;;;;;;;;;6.30;99.90;;;;;;5064797;28;20711;-66
2023/12/16 03:34:15;;;;;;;;;;;6.30;99.90;;;;;;5064861;28;20027;-68
2023/12/16 03:36:42;;;;;;;;;;;6.40;99.90;;;;;;5064850;28;20424;-66
2023/12/16 03:39:08;;;;;;;;;;;6.40;99.90;;;;;;5065029;28;20469;-67
2023/12/16 03:41:35;;;;;;;;;;;6.40;99.90;;;;;;5065275;28;19986;-67
2023/12/16 03:44:02;;;;;;;;;;;6.30;99.90;;;;;;5063506;28;19986;-66
2023/12/16 03:46:28;;;;;;;;;;;6.30;99.90;;;;;;5065374;28;19992;-66
2023/12/16 03:48:56;;;;;;;;;;;6.30;99.90;;;;;;5063707;28;19991;-66
2023/12/16 03:51:23;;;;;;;;;;;6.30;99.90;;;;;;5065881;28;19995;-67
2023/12/16 03:53:49;;;;;;;;;;;6.30;99.90;;;;;;5063780;28;19985;-67
2023/12/16 03:56:16;;;;;;;;;;;6.30;99.90;;;;;;5065218;28;20471;-67
2023/12/16 03:58:43;;;;;;;;;;;6.30;99.90;;;;;;5064627;28;20065;-66
2023/12/16 04:01:13;;;;;;;;;;;6.30;99.90;;;;;;5065235;28;19995;-66
2023/12/16 04:03:39;;;;;;;;;;;6.30;99.90;;;;;;5062180;28;20023;-66
2023/12/16 04:06:11;;;;;;;;;;;6.30;99.90;;;;;;5065759;28;19971;-66
2023/12/16 04:08:37;;;;;;;;;;;6.30;99.90;;;;;;5065203;28;19995;-67
2023/12/16 04:11:04;;;;;;;;;;;6.30;99.90;;;;;;5066306;28;19980;-67
2023/12/16 04:13:30;;;;;;;;;;;6.30;99.90;;;;;;5065611;28;20061;-67
2023/12/16 04:15:57;;;;;;;;;;;6.30;99.90;;;;;;5064325;28;19995;-67
2023/12/16 04:18:23;;;;;;;;;;;6.30;99.90;;;;;;5064443;28;19995;-67
2023/12/16 04:20:50;;;;;;;;;;;6.30;99.90;;;;;;5065523;28;19975;-67
2023/12/16 04:23:18;;;;;;;;;;;6.30;99.90;;;;;;5063327;28;21854;-66
2023/12/16 04:25:44;;;;;;;;;;;6.30;99.90;;;;;;5066114;28;19975;-67
2023/12/16 04:28:11;;;;;;;;;;;6.30;99.90;;;;;;5066114;28;19998;-67
2023/12/16 04:30:38;;;;;;;;;;;6.30;99.90;;;;;;5064368;28;19995;-66
2023/12/16 04:33:04;;;;;;;;;;;6.30;99.90;;;;;;5066372;28;20015;-67
2023/12/16 04:35:31;;;;;;;;;;;6.30;99.90;;;;;;5064398;28;20026;-67
2023/12/16 04:37:57;;;;;;;;;;;6.30;99.90;;;;;;5064274;28;19999;-67
2023/12/16 04:40:25;;;;;;;;;;;6.30;99.90;;;;;;5065946;28;20058;-67
2023/12/16 04:42:52;;;;;;;;;;;6.20;99.90;;;;;;5065594;28;19976;-67
2023/12/16 04:45:18;;;;;;;;;;;6.30;99.90;;;;;;5064839;28;19987;-67
2023/12/16 04:47:45;;;;;;;;;;;6.30;99.90;;;;;;5063430;28;20435;-68
2023/12/16 04:50:11;;;;;;;;;;;6.30;99.90;;;;;;5067341;28;19975;-67
2023/12/16 04:52:39;;;;;;;;;;;6.20;99.90;;;;;;5064882;28;20365;-67
2023/12/16 04:55:07;;;;;;;;;;;6.20;99.90;;;;;;5065555;28;20031;-66
2023/12/16 04:57:35;;;;;;;;;;;6.20;99.90;;;;;;5064140;28;20463;-66
2023/12/16 05:00:04;;;;;;;;;;;6.20;99.90;;;;;;5066090;28;20491;-66
2023/12/16 05:02:31;;;;;;;;;;;6.20;99.90;;;;;;5060430;28;19992;-67
2023/12/16 05:04:57;;;;;;;;;;;6.20;99.90;;;;;;5063807;28;19983;-67
2023/12/16 05:07:24;;;;;;;;;;;6.20;99.90;;;;;;5063090;28;20409;-67
2023/12/16 05:09:50;;;;;;;;;;;6.20;99.90;;;;;;5064511;28;19976;-68
2023/12/16 05:12:17;;;;;;;;;;;6.20;99.90;;;;;;5064944;28;19998;-67
2023/12/16 05:14:44;;;;;;;;;;;6.20;99.90;;;;;;5065272;28;19987;-67
2023/12/16 05:17:10;;;;;;;;;;;6.10;99.90;;;;;;5064805;28;20419;-67
2023/12/16 05:19:37;;;;;;;;;;;6.10;99.90;;;;;;5065522;28;19978;-67
2023/12/16 05:22:03;;;;;;;;;;;6.10;99.90;;;;;;5066122;28;20385;-67
2023/12/16 05:24:30;;;;;;;;;;;6.10;99.90;;;;;;5064801;28;19984;-67
2023/12/16 05:26:56;;;;;;;;;;;6.10;99.90;;;;;;5065045;28;19983;-67
2023/12/16 05:29:23;;;;;;;;;;;6.10;99.90;;;;;;5064928;28;20096;-68
2023/12/16 05:31:51;;;;;;;;;;;6.10;99.90;;;;;;5064661;28;19999;-67
2023/12/16 05:34:17;;;;;;;;;;;6.10;99.90;;;;;;5063265;28;19976;-67
2023/12/16 05:36:44;;;;;;;;;;;6.10;99.90;;;;;;5064267;28;19983;-66
2023/12/16 05:39:11;;;;;;;;;;;6.10;99.90;;;;;;5066045;28;19995;-68
2023/12/16 05:41:37;;;;;;;;;;;6.00;99.90;;;;;;5065114;28;20084;-67
2023/12/16 05:44:04;;;;;;;;;;;6.00;99.90;;;;;;5064055;28;20465;-67
2023/12/16 05:46:31;;;;;;;;;;;6.00;99.90;;;;;;5064440;28;19995;-66
2023/12/16 05:48:58;;;;;;;;;;;6.00;99.90;;;;;;5064926;28;19995;-67
2023/12/16 05:51:25;;;;;;;;;;;6.00;99.90;;;;;;5064862;28;19987;-66
2023/12/16 05:53:51;;;;;;;;;;;6.00;99.90;;;;;;5064233;28;20223;-66
2023/12/16 05:56:18;;;;;;;;;;;6.00;99.90;;;;;;5064875;28;20445;-66
2023/12/16 05:58:45;;;;;;;;;;;6.00;99.90;;;;;;5063836;28;19991;-67
2023/12/16 06:01:11;;;;;;;;;;;6.00;99.90;;;;;;5061916;28;20002;-67
2023/12/16 06:03:38;;;;;;;;;;;5.90;99.90;;;;;;5063275;28;19975;-66
2023/12/16 06:06:06;;;;;;;;;;;6.00;99.90;;;;;;5063125;28;19981;-67
2023/12/16 06:08:34;;;;;;;;;;;5.90;99.90;;;;;;5061480;28;20002;-67
2023/12/16 06:11:00;;;;;;;;;;;5.90;99.90;;;;;;5064762;28;19983;-66
2023/12/16 06:13:27;;;;;;;;;;;5.90;99.90;;;;;;5066231;28;20068;-68
2023/12/16 06:15:54;;;;;;;;;;;5.90;99.90;;;;;;5067553;28;20049;-68
2023/12/16 06:18:20;;;;;;;;;;;5.90;99.90;;;;;;5067982;28;20385;-67
2023/12/16 06:20:47;;;;;;;;;;;5.90;99.90;;;;;;5069581;28;19982;-66
2023/12/16 06:23:15;;;;;;;;;;;5.90;99.90;;;;;;5066652;28;20454;-68
2023/12/16 06:25:41;;;;;;;;;;;5.90;99.90;;;;;;5067343;28;19976;-66
2023/12/16 06:28:08;;;;;;;;;;;5.90;99.90;;;;;;5070690;28;20002;-67
2023/12/16 06:30:35;;;;;;;;;;;5.90;99.90;;;;;;5066322;28;19996;-67
2023/12/16 06:33:01;;;;;;;;;;;5.90;99.90;;;;;;5068706;28;19995;-67
2023/12/16 06:35:28;;;;;;;;;;;5.90;99.90;;;;;;5067939;28;19988;-67
2023/12/16 06:37:54;;;;;;;;;;;5.90;99.90;;;;;;5067176;28;20423;-67
2023/12/16 06:40:22;;;;;;;;;;;5.90;99.90;;;;;;5068314;28;20433;-68
2023/12/16 06:42:48;;;;;;;;;;;5.90;99.90;;;;;;5067615;28;19975;-67
2023/12/16 06:45:15;;;;;;;;;;;5.90;99.90;;;;;;5067725;28;19987;-66
2023/12/16 06:47:42;;;;;;;;;;;5.90;99.90;;;;;;5067697;28;20812;-67
2023/12/16 06:50:09;;;;;;;;;;;5.90;99.90;;;;;;5069618;28;20767;-67
2023/12/16 06:52:35;;;;;;;;;;;5.90;99.90;;;;;;5065468;28;20600;-66
2023/12/16 06:55:02;;;;;;;;;;;5.80;99.90;;;;;;5069652;28;19979;-67
2023/12/16 06:57:30;;;;;;;;;;;5.80;99.90;;;;;;5065842;28;19992;-66
2023/12/16 06:59:56;;;;;;;;;;;5.80;99.90;;;;;;5068330;28;19975;-68
2023/12/16 07:02:23;;;;;;;;;;;5.80;99.90;;;;;;5061511;28;19999;-67
2023/12/16 07:04:51;;;;;;;;;;;5.90;99.90;;;;;;5064896;28;22388;-68
2023/12/16 07:07:17;;;;;;;;;;;5.90;99.90;;;;;;5065227;28;19979;-67
2023/12/16 07:09:44;;;;;;;;;;;5.80;99.90;;;;;;5065846;28;19987;-67
2023/12/16 07:12:11;;;;;;;;;;;5.90;99.90;;;;;;5068121;28;19999;-67
2023/12/16 07:14:38;;;;;;;;;;;5.90;99.90;;;;;;5064202;28;19975;-65
2023/12/16 07:17:05;;;;;;;;;;;5.90;99.90;;;;;;5066926;28;19995;-66
2023/12/16 07:19:34;;;;;;;;;;;5.90;99.90;;;;;;5067238;28;19979;-68
2023/12/16 07:22:00;;;;;;;;;;;5.80;99.90;;;;;;5068809;28;19983;-67
2023/12/16 07:24:27;;;;;;;;;;;5.80;99.90;;;;;;5062490;28;19979;-67
2023/12/16 07:26:53;;;;;;;;;;;5.80;99.90;;;;;;5066627;28;19982;-67
2023/12/16 07:29:21;;;;;;;;;;;5.80;99.90;;;;;;5065817;28;20006;-67
2023/12/16 07:31:49;;;;;;;;;;;5.80;99.90;;;;;;5066731;28;20074;-67
2023/12/16 07:34:16;;;;;;;;;;;5.80;99.90;;;;;;5065771;28;20090;-67
2023/12/16 07:36:42;;;;;;;;;;;5.80;99.90;;;;;;5065538;28;19976;-67
2023/12/16 07:39:09;;;;;;;;;;;5.80;99.90;;;;;;5066765;28;19992;-66
2023/12/16 07:41:35;;;;;;;;;;;5.80;99.90;;;;;;5067419;28;20074;-67
2023/12/16 07:44:02;;;;;;;;;;;5.80;99.90;;;;;;5066947;28;19976;-67
2023/12/16 07:46:29;;;;;;;;;;;5.90;99.90;;;;;;5064785;28;19999;-67
2023/12/16 07:48:56;;;;;;;;;;;5.80;99.90;;;;;;5067505;28;20432;-67
2023/12/16 07:51:25;;;;;;;;;;;5.80;99.90;;;;;;5066509;28;20601;-67
2023/12/16 07:53:51;;;;;;;;;;;5.80;99.90;;;;;;5066168;28;20026;-67
2023/12/16 07:56:20;;;;;;;;;;;5.80;99.90;;;;;;5066749;28;19979;-66
2023/12/16 07:58:47;;;;;;;;;;;5.80;99.90;;;;;;5061835;28;20002;-67
2023/12/16 08:01:14;;;;;;;;;;;5.90;99.90;;;;;;5067064;28;20129;-66
2023/12/16 08:03:41;;;;;;;;;;;5.90;99.90;;;;;;5067146;28;20531;-67
2023/12/16 08:06:09;;;;;;;;;;;5.90;99.90;;;;;;5067867;28;19982;-67
2023/12/16 08:08:36;;;;;;;;;;;5.80;99.90;;;;;;5065236;28;20721;-67
2023/12/16 08:11:03;;;;;;;;;;;5.90;99.90;;;;;;5068011;28;19975;-67
2023/12/16 08:13:30;;;;;;;;;;;5.90;99.90;;;;;;5065689;28;20476;-67
2023/12/16 08:15:56;;;;;;;;;;;5.90;99.90;;;;;;5065368;28;20584;-67
2023/12/16 08:18:23;;;;;;;;;;;5.90;99.90;;;;;;5064780;28;19995;-67
2023/12/16 08:20:49;;;;;;;;;;;5.90;99.90;;;;;;5067824;28;20022;-67
2023/12/16 08:23:18;;;;;;;;;;;5.90;99.90;;;;;;5064688;28;19987;-67
2023/12/16 08:25:45;;;;;;;;;;;5.90;99.90;;;;;;5067355;28;19979;-66
2023/12/16 08:28:12;;;;;;;;;;;5.90;99.90;;;;;;5067678;28;19995;-67
2023/12/16 08:30:38;;;;;;;;;;;5.90;99.90;;;;;;5064610;28;20002;-66
2023/12/16 08:33:05;;;;;;;;;;;5.90;99.90;;;;;;5067331;28;19995;-67
2023/12/16 08:35:31;;;;;;;;;;;5.90;99.90;;;;;;5064856;28;20521;-67
2023/12/16 08:37:58;;;;;;;;;;;5.90;99.90;;;;;;5064591;28;19995;-67
2023/12/16 08:40:27;;;;;;;;;;;5.90;99.90;;;;;;5067018;28;19983;-66
2023/12/16 08:42:54;;;;;;;;;;;5.90;99.90;;;;;;5065773;28;20014;-67
2023/12/16 08:45:20;;;;;;;;;;;5.90;99.90;;;;;;5062273;28;20548;-66
2023/12/16 08:47:47;;;;;;;;;;;5.90;99.90;;;;;;5064786;28;19998;-67
2023/12/16 08:50:13;;;;;;;;;;;5.90;99.90;;;;;;5068165;28;20002;-67
2023/12/16 08:52:40;;;;;;;;;;;5.90;99.90;;;;;;5063305;28;19991;-66
2023/12/16 08:55:07;;;;;;;;;;;5.90;99.90;;;;;;5066603;28;20199;-66
2023/12/16 08:57:35;;;;;;;;;;;5.90;99.90;;;;;;5065162;28;20372;-67
2023/12/16 09:00:01;;;;;;;;;;;5.90;99.90;;;;;;5066789;28;19980;-67
2023/12/16 09:02:28;;;;;;;;;;;5.90;99.90;;;;;;5065185;28;19995;-67
2023/12/16 09:04:54;;;;;;;;;;;6.00;99.90;;;;;;5066579;28;19975;-66
2023/12/16 09:07:21;;;;;;;;;;;6.00;99.90;;;;;;5063935;28;19980;-68
2023/12/16 09:09:48;;;;;;;;;;;6.00;99.90;;;;;;5064694;28;19976;-67
2023/12/16 09:12:14;;;;;;;;;;;6.00;99.90;;;;;;5067500;28;20005;-67
2023/12/16 09:14:42;;;;;;;;;;;6.00;99.90;;;;;;5063682;28;19995;-66
2023/12/16 09:17:09;;;;;;;;;;;6.00;99.90;;;;;;5065020;28;19999;-68
2023/12/16 09:19:35;;;;;;;;;;;6.00;99.90;;;;;;5065181;28;20049;-67
2023/12/16 09:22:02;;;;;;;;;;;6.00;99.90;;;;;;5065355;28;20455;-67
2023/12/16 09:24:28;;;;;;;;;;;6.00;99.90;;;;;;5064871;28;19979;-67
2023/12/16 09:26:55;;;;;;;;;;;6.00;99.90;;;;;;5066336;28;19986;-68
2023/12/16 09:29:21;;;;;;;;;;;6.10;99.90;;;;;;5065934;28;20330;-67
2023/12/16 09:31:49;;;;;;;;;;;6.10;99.90;;;;;;5064042;28;20464;-67
2023/12/16 09:34:16;;;;;;;;;;;6.10;99.90;;;;;;5064423;28;19995;-66
2023/12/16 09:36:42;;;;;;;;;;;6.10;99.90;;;;;;5063346;28;20461;-68
2023/12/16 09:39:10;;;;;;;;;;;6.10;99.90;;;;;;5064992;28;19991;-67
2023/12/16 09:41:44;;;;;;;;;;;6.10;99.90;;;;;;5066391;28;19980;-66
2023/12/16 09:44:14;;;;;;;;;;;6.10;99.90;;;;;;5063090;28;19998;-67
2023/12/16 09:46:41;;;;;;;;;;;6.20;99.90;;;;;;5064523;28;20461;-67
2023/12/16 09:49:09;;;;;;;;;;;6.10;99.90;;;;;;5069828;28;20041;-67
2023/12/16 09:51:35;;;;;;;;;;;6.20;99.90;;;;;;5066564;28;20515;-67
2023/12/16 09:54:03;;;;;;;;;;;6.20;99.90;;;;;;5068499;28;19994;-67
2023/12/16 09:56:29;;;;;;;;;;;6.20;99.90;;;;;;5069108;28;19997;-68
2023/12/16 09:58:57;;;;;;;;;;;6.20;99.90;;;;;;5067538;28;20033;-66
2023/12/16 10:01:24;;;;;;;;;;;6.20;99.90;;;;;;5067557;28;19995;-67
2023/12/16 10:03:50;;;;;;;;;;;6.20;99.90;;;;;;5066755;28;19975;-66
2023/12/16 10:06:18;;;;;;;;;;;6.30;99.90;;;;;;5066301;28;20033;-67
2023/12/16 10:08:46;;;;;;;;;;;6.30;99.90;;;;;;5066565;28;20072;-66
2023/12/16 10:11:13;;;;;;;;;;;6.30;99.90;;;;;;5068805;28;19983;-67
2023/12/16 10:13:54;;;;;;;;;;;6.30;99.90;;;;;;5067290;28;20105;-66
2023/12/16 10:16:21;;;;;;;;;;;6.30;99.90;;;;;;5066914;28;19999;-66
2023/12/16 10:18:49;;;;;;;;;;;6.40;99.90;;;;;;5067953;28;19995;-67
2023/12/16 10:21:21;;;;;;;;;;;6.30;99.90;;;;;;5070160;28;19986;-66
2023/12/16 10:23:48;;;;;;;;;;;6.40;99.90;;;;;;5067391;28;20606;-67
2023/12/16 10:26:14;;;;;;;;;;;6.40;99.90;;;;;;5067661;28;19980;-67
2023/12/16 10:28:45;;;;;;;;;;;6.40;99.90;;;;;;5068439;28;20006;-67
2023/12/16 10:31:11;;;;;;;;;;;6.40;99.90;;;;;;5069552;28;20006;-67
2023/12/16 10:33:38;;;;;;;;;;;6.40;99.90;;;;;;5067850;28;20086;-67
2023/12/16 10:36:04;;;;;;;;;;;6.40;99.90;;;;;;5067267;28;20388;-66
2023/12/16 10:38:32;;;;;;;;;;;6.40;99.90;;;;;;5067480;28;19996;-67
2023/12/16 10:40:59;;;;;;;;;;;6.50;99.90;;;;;;5068354;28;19995;-66
2023/12/16 10:43:25;;;;;;;;;;;6.40;99.90;;;;;;5067528;28;19980;-67
2023/12/16 10:45:52;;;;;;;;;;;6.50;99.90;;;;;;5065160;28;20007;-67
2023/12/16 10:48:21;;;;;;;;;;;6.50;99.90;;;;;;5068842;28;19995;-68
2023/12/16 10:50:48;;;;;;;;;;;6.50;99.90;;;;;;5068724;28;20032;-67
2023/12/16 10:53:18;;;;;;;;;;;6.50;99.90;;;;;;5068392;28;19979;-67
2023/12/16 10:55:49;;;;;;;;;;;6.60;99.90;;;;;;5066461;28;20078;-66
2023/12/16 10:58:19;;;;;;;;;;;6.60;99.90;;;;;;5068728;28;19994;-67
2023/12/16 11:00:47;;;;;;;;;;;6.60;99.90;;;;;;5065924;28;20001;-67
2023/12/16 11:03:19;;;;;;;;;;;6.60;99.90;;;;;;5065882;28;19987;-67
2023/12/16 11:05:49;;;;;;;;;;;6.60;99.90;;;;;;5065754;28;20010;-66
2023/12/16 11:08:16;;;;;;;;;;;6.60;99.90;;;;;;5065712;28;20000;-67
2023/12/16 11:10:43;;;;;;;;;;;6.60;99.90;;;;;;5065616;28;20464;-68
2023/12/16 11:13:11;;;;;;;;;;;6.60;99.90;;;;;;5068814;28;20093;-66
2023/12/16 11:15:38;;;;;;;;;;;6.70;99.90;;;;;;5065737;28;19995;-66
2023/12/16 11:18:08;;;;;;;;;;;6.70;99.90;;;;;;5066969;28;20114;-67
2023/12/16 11:20:38;;;;;;;;;;;6.60;99.90;;;;;;5067586;28;20009;-68
2023/12/16 11:23:04;;;;;;;;;;;6.60;99.90;;;;;;5067969;28;19975;-67
2023/12/16 11:25:33;;;;;;;;;;;6.70;99.90;;;;;;5067164;28;19980;-67
2023/12/16 11:28:01;;;;;;;;;;;6.70;99.90;;;;;;5068537;28;20637;-67
2023/12/16 11:30:30;;;;;;;;;;;6.70;99.90;;;;;;5065073;28;20061;-66
2023/12/16 11:32:58;;;;;;;;;;;6.70;99.90;;;;;;5067764;28;20078;-66
2023/12/16 11:35:52;;;;;;;;;;;6.70;99.90;;;;;;5068059;28;20540;-67
2023/12/16 11:38:41;;;;;;;;;;;6.70;99.90;;;;;;5028372;28;20396;-67
2023/12/16 11:41:08;;;;;;;;;;;6.70;99.90;;;;;;5062118;28;20501;-66
2023/12/16 11:43:47;;;;;;;;;;;6.70;99.90;;;;;;5067190;28;19998;-66
2023/12/16 11:46:29;;;;;;;;;;;6.60;99.90;;;;;;5067482;28;20475;-67
2023/12/16 11:48:57;;;;;;;;;;;6.60;99.90;;;;;;5066200;28;20133;-67
2023/12/16 11:51:24;;;;;;;;;;;6.60;99.90;;;;;;5066444;28;19986;-67
2023/12/16 11:53:52;;;;;;;;;;;6.70;99.90;;;;;;5067331;28;19995;-67
2023/12/16 11:56:19;;;;;;;;;;;6.70;99.90;;;;;;5067039;28;19979;-67
2023/12/16 11:58:46;;;;;;;;;;;6.70;99.90;;;;;;5066029;28;20006;-68
2023/12/16 12:01:13;;;;;;;;;;;6.70;99.90;;;;;;5064914;28;20057;-67
2023/12/16 12:03:39;;;;;;;;;;;6.70;99.90;;;;;;5064715;28;20077;-68
2023/12/16 12:06:08;;;;;;;;;;;6.70;99.90;;;;;;5063942;28;19983;-66
2023/12/16 12:08:35;;;;;;;;;;;6.70;99.90;;;;;;5063469;28;20480;-67
2023/12/16 12:11:06;;;;;;;;;;;6.70;99.90;;;;;;5067211;28;19987;-68
2023/12/16 12:13:34;;;;;;;;;;;6.70;99.90;;;;;;5066677;28;20031;-67
2023/12/16 12:16:01;;;;;;;;;;;6.80;99.90;;;;;;5065841;28;20376;-65
2023/12/16 12:18:28;;;;;;;;;;;6.70;99.90;;;;;;5063982;28;19995;-66
2023/12/16 12:20:54;;;;;;;;;;;6.80;99.90;;;;;;5067909;28;20471;-67
2023/12/16 12:23:22;;;;;;;;;;;6.80;99.90;;;;;;5064981;28;20010;-67
2023/12/16 12:25:54;;;;;;;;;;;6.80;99.90;;;;;;5066893;28;19979;-66
2023/12/16 12:28:20;;;;;;;;;;;6.80;99.90;;;;;;5064357;28;19995;-68
2023/12/16 12:30:47;;;;;;;;;;;6.80;99.90;;;;;;5066112;28;20689;-68
2023/12/16 12:33:13;;;;;;;;;;;6.90;99.90;;;;;;5066981;28;19986;-67
2023/12/16 12:35:40;;;;;;;;;;;6.90;99.90;;;;;;5064680;28;19995;-67
2023/12/16 12:38:06;;;;;;;;;;;6.90;99.90;;;;;;5064565;28;20000;-67
2023/12/16 12:40:34;;;;;;;;;;;6.90;99.90;;;;;;5066664;28;20516;-67
2023/12/16 12:43:01;;;;;;;;;;;6.90;99.90;;;;;;5065489;28;19979;-67
2023/12/16 12:45:28;;;;;;;;;;;6.90;99.90;;;;;;5061466;28;20438;-67
2023/12/16 12:47:55;;;;;;;;;;;6.90;99.90;;;;;;5064562;28;20373;-67
2023/12/16 12:50:22;;;;;;;;;;;6.90;99.90;;;;;;5066326;28;19990;-67
2023/12/16 12:52:49;;;;;;;;;;;7.00;99.90;;;;;;5064056;28;19980;-67
2023/12/16 12:55:17;;;;;;;;;;;7.00;99.90;;;;;;5065705;28;20631;-67
2023/12/16 12:57:45;;;;;;;;;;;6.90;99.90;;;;;;5065614;28;20018;-67
2023/12/16 13:00:13;;;;;;;;;;;7.00;99.90;;;;;;5064799;28;20496;-66
2023/12/16 13:02:39;;;;;;;;;;;7.00;99.90;;;;;;5066206;28;19998;-66
2023/12/16 13:05:06;;;;;;;;;;;7.00;99.90;;;;;;5066774;28;19979;-67
2023/12/16 13:07:33;;;;;;;;;;;7.10;99.90;;;;;;5065000;28;19991;-67
2023/12/16 13:09:59;;;;;;;;;;;7.10;99.90;;;;;;5064948;28;19991;-67
2023/12/16 13:12:26;;;;;;;;;;;7.10;99.90;;;;;;5063776;28;19979;-66
2023/12/16 13:14:54;;;;;;;;;;;7.10;99.90;;;;;;5062391;28;20086;-67
2023/12/16 13:17:20;;;;;;;;;;;7.20;99.90;;;;;;5062864;28;20000;-67
2023/12/16 13:19:47;;;;;;;;;;;7.20;99.90;;;;;;5063653;28;20454;-67
2023/12/16 13:22:13;;;;;;;;;;;7.20;99.90;;;;;;5066527;28;20029;-67
2023/12/16 13:24:41;;;;;;;;;;;7.20;99.90;;;;;;5067945;28;19982;-67
2023/12/16 13:27:07;;;;;;;;;;;7.20;99.90;;;;;;5067206;28;19975;-65
2023/12/16 13:29:34;;;;;;;;;;;7.20;99.90;;;;;;5066719;28;19975;-67
2023/12/16 13:32:02;;;;;;;;;;;7.20;99.90;;;;;;5068050;28;20813;-67
2023/12/16 13:34:29;;;;;;;;;;;7.20;99.90;;;;;;5067329;28;19996;-67
2023/12/16 13:36:55;;;;;;;;;;;7.20;99.90;;;;;;5067011;28;19982;-68
2023/12/16 13:39:22;;;;;;;;;;;7.30;99.90;;;;;;5068123;28;20002;-67
2023/12/16 13:41:48;;;;;;;;;;;7.20;99.90;;;;;;5067467;28;20357;-66
2023/12/16 13:44:15;;;;;;;;;;;7.30;99.90;;;;;;5065635;28;19983;-66
2023/12/16 13:46:42;;;;;;;;;;;7.30;99.90;;;;;;5062757;28;19995;-67
2023/12/16 13:49:12;;;;;;;;;;;7.30;99.90;;;;;;5067116;28;20002;-67
2023/12/16 13:51:38;;;;;;;;;;;7.30;99.90;;;;;;5068657;28;19981;-66
2023/12/16 13:54:05;;;;;;;;;;;7.30;99.90;;;;;;5066790;28;19983;-67
2023/12/16 13:56:31;;;;;;;;;;;7.30;99.90;;;;;;5068479;28;19983;-65
2023/12/16 13:58:58;;;;;;;;;;;7.20;99.90;;;;;;5067565;28;20003;-66
2023/12/16 14:01:24;;;;;;;;;;;7.20;99.90;;;;;;5063560;28;19995;-67
2023/12/16 14:03:51;;;;;;;;;;;7.20;99.90;;;;;;5066633;28;19975;-67
2023/12/16 14:06:19;;;;;;;;;;;7.20;99.90;;;;;;5066184;28;20397;-66
2023/12/16 14:08:46;;;;;;;;;;;7.20;99.90;;;;;;5066690;28;19992;-67
2023/12/16 14:11:12;;;;;;;;;;;7.20;99.90;;;;;;5063984;28;20357;-67
2023/12/16 14:13:39;;;;;;;;;;;7.10;99.90;;;;;;5067129;28;19998;-66
2023/12/16 14:16:06;;;;;;;;;;;7.20;99.90;;;;;;5067458;28;20511;-68
2023/12/16 14:18:32;;;;;;;;;;;7.10;99.90;;;;;;5066264;28;19999;-66
2023/12/16 14:20:59;;;;;;;;;;;7.10;99.90;;;;;;5067897;28;19986;-66
2023/12/16 14:23:27;;;;;;;;;;;7.10;99.90;;;;;;5066244;28;20404;-67
2023/12/16 14:25:54;;;;;;;;;;;7.10;99.90;;;;;;5068584;28;19975;-67
2023/12/16 14:28:20;;;;;;;;;;;7.00;99.90;;;;;;5070013;28;19991;-68
2023/12/16 14:30:47;;;;;;;;;;;7.00;99.90;;;;;;5066548;28;19995;-67